Time;durP1;ratioP1;P1;durP2;ratioP2;P2;SDS_P1;SDS_P2;PMS_P1;PMS_P2;Temp;Humidity;BMP_temperature;BMP_pressure;BME280_temperature;BME280_humidity;BME280_pressure;Samples;Min_cycle;Max_cycle;Signal;HPM_P1;HPM_P2
2022/10/06 00:00:53;;;;;;;;;;;17.40;99.90;;;;;;5066492;28;19915;-81
2022/10/06 00:03:23;;;;;;;;;;;17.40;99.90;;;;;;5067922;28;20363;-80
2022/10/06 00:05:50;;;;;;;;;;;17.40;99.90;;;;;;5076438;28;20010;-80
2022/10/06 00:08:17;;;;;;;;;;;17.40;99.90;;;;;;5070996;28;19919;-78
2022/10/06 00:10:44;;;;;;;;;;;17.40;99.90;;;;;;5073294;28;19908;-80
2022/10/06 00:13:11;;;;;;;;;;;17.40;99.90;;;;;;5068253;28;19912;-77
2022/10/06 00:15:38;;;;;;;;;;;17.30;99.90;;;;;;5075478;28;19908;-82
2022/10/06 00:18:04;;;;;;;;;;;17.30;99.90;;;;;;5085606;28;20361;-81
2022/10/06 00:20:32;;;;;;;;;;;17.30;99.90;;;;;;5069895;28;19935;-81
2022/10/06 00:22:58;;;;;;;;;;;17.30;99.90;;;;;;5066943;28;19938;-80
2022/10/06 00:25:27;;;;;;;;;;;17.20;99.90;;;;;;5071641;28;19916;-79
2022/10/06 00:27:53;;;;;;;;;;;17.30;99.90;;;;;;5063143;28;19999;-79
2022/10/06 00:30:23;;;;;;;;;;;17.40;99.90;;;;;;5074801;28;19962;-77
2022/10/06 00:32:52;;;;;;;;;;;17.40;99.90;;;;;;5057284;28;20294;-78
2022/10/06 00:35:19;;;;;;;;;;;17.40;99.90;;;;;;5053137;28;20378;-78
2022/10/06 00:37:46;;;;;;;;;;;17.30;99.90;;;;;;5069723;28;20359;-82
2022/10/06 00:40:13;;;;;;;;;;;17.30;99.90;;;;;;5077681;28;20355;-78
2022/10/06 00:42:49;;;;;;;;;;;17.40;99.90;;;;;;5069781;28;19909;-80
2022/10/06 00:45:16;;;;;;;;;;;17.40;99.90;;;;;;5065859;28;19999;-78
2022/10/06 00:47:43;;;;;;;;;;;17.50;99.90;;;;;;5069279;28;19916;-81
2022/10/06 00:50:10;;;;;;;;;;;17.50;99.90;;;;;;5071306;28;19912;-78
2022/10/06 00:52:38;;;;;;;;;;;17.50;99.90;;;;;;5054387;28;19958;-82
2022/10/06 00:55:08;;;;;;;;;;;17.60;99.90;;;;;;5064619;28;19912;-79
2022/10/06 00:57:36;;;;;;;;;;;17.60;99.90;;;;;;5051141;28;19926;-80
2022/10/06 01:00:06;;;;;;;;;;;17.80;99.90;;;;;;5068770;28;19916;-87
2022/10/06 01:02:36;;;;;;;;;;;18.00;99.90;;;;;;5072219;28;20287;-81
2022/10/06 01:05:04;;;;;;;;;;;18.20;99.90;;;;;;5069212;28;19921;-79
2022/10/06 01:07:31;;;;;;;;;;;18.40;99.90;;;;;;5067514;28;19908;-80
2022/10/06 01:09:58;;;;;;;;;;;18.60;99.90;;;;;;5067011;28;19933;-81
2022/10/06 01:12:26;;;;;;;;;;;18.80;99.90;;;;;;5073077;28;19908;-81
2022/10/06 01:14:55;;;;;;;;;;;18.80;99.90;;;;;;5060531;28;19920;-81
2022/10/06 01:17:24;;;;;;;;;;;18.90;99.90;;;;;;5070618;28;20136;-78
2022/10/06 01:20:03;;;;;;;;;;;19.00;99.90;;;;;;5061787;28;19919;-77
2022/10/06 01:22:34;;;;;;;;;;;19.00;99.90;;;;;;5068897;28;19908;-77
2022/10/06 01:25:01;;;;;;;;;;;18.90;99.90;;;;;;5066716;28;20394;-79
2022/10/06 01:27:29;;;;;;;;;;;18.80;99.90;;;;;;5060466;28;19909;-77
2022/10/06 01:29:56;;;;;;;;;;;18.80;99.90;;;;;;5077214;28;19931;-81
2022/10/06 01:32:24;;;;;;;;;;;18.80;99.90;;;;;;5082142;28;19908;-81
2022/10/06 01:34:50;;;;;;;;;;;18.80;99.90;;;;;;5083924;28;19908;-89
2022/10/06 01:37:17;;;;;;;;;;;18.80;99.90;;;;;;5069258;28;20383;-87
2022/10/06 01:39:44;;;;;;;;;;;18.90;99.90;;;;;;5060540;28;20008;-80
2022/10/06 01:42:11;;;;;;;;;;;19.00;99.90;;;;;;5058424;28;20382;-80
2022/10/06 01:44:37;;;;;;;;;;;19.10;99.90;;;;;;5068118;28;20046;-82
2022/10/06 01:47:05;;;;;;;;;;;19.20;99.90;;;;;;5076697;28;19915;-78
2022/10/06 01:49:32;;;;;;;;;;;19.20;99.90;;;;;;5073204;28;19908;-86
2022/10/06 01:51:58;;;;;;;;;;;19.30;99.90;;;;;;5073515;28;20657;-84
2022/10/06 01:54:25;;;;;;;;;;;19.30;99.90;;;;;;5068748;28;20817;-82
2022/10/06 01:56:52;;;;;;;;;;;19.40;99.90;;;;;;5069207;28;19908;-83
2022/10/06 01:59:19;;;;;;;;;;;19.50;99.90;;;;;;5069358;28;19918;-79
2022/10/06 02:01:45;;;;;;;;;;;19.50;99.90;;;;;;5074667;28;19909;-78
2022/10/06 02:04:12;;;;;;;;;;;19.50;99.90;;;;;;5065486;28;19923;-82
2022/10/06 02:06:39;;;;;;;;;;;19.60;99.90;;;;;;5067024;28;19912;-81
2022/10/06 02:09:06;;;;;;;;;;;19.60;99.90;;;;;;5065666;28;19913;-84
2022/10/06 02:11:33;;;;;;;;;;;19.60;99.90;;;;;;5069597;28;19977;-85
2022/10/06 02:14:00;;;;;;;;;;;19.70;99.90;;;;;;5070246;28;20042;-87
2022/10/06 02:16:28;;;;;;;;;;;19.70;99.90;;;;;;5071478;28;20325;-85
2022/10/06 02:18:55;;;;;;;;;;;19.70;99.90;;;;;;5061652;28;20287;-82
2022/10/06 02:21:22;;;;;;;;;;;19.80;99.90;;;;;;5068368;28;19909;-76
2022/10/06 02:23:48;;;;;;;;;;;19.90;99.90;;;;;;5063852;28;20405;-85
2022/10/06 02:26:16;;;;;;;;;;;19.90;99.90;;;;;;5066114;28;19920;-85
2022/10/06 02:28:46;;;;;;;;;;;20.00;99.90;;;;;;5064436;28;19912;-87
2022/10/06 02:31:13;;;;;;;;;;;20.00;99.90;;;;;;5067644;28;19912;-85
2022/10/06 02:33:40;;;;;;;;;;;20.20;99.90;;;;;;5076604;28;19905;-89
2022/10/06 02:36:09;;;;;;;;;;;20.40;99.90;;;;;;5055935;28;19961;-79
2022/10/06 02:38:36;;;;;;;;;;;20.50;99.90;;;;;;5067814;28;19912;-78
2022/10/06 02:41:03;;;;;;;;;;;20.40;99.90;;;;;;5071723;28;19909;-83
2022/10/06 02:43:30;;;;;;;;;;;20.40;99.90;;;;;;5055101;28;19912;-79
2022/10/06 02:46:01;;;;;;;;;;;20.40;99.90;;;;;;5041976;28;20015;-79
2022/10/06 02:48:28;;;;;;;;;;;20.30;99.90;;;;;;5068947;28;20013;-80
2022/10/06 02:51:00;;;;;;;;;;;20.20;99.90;;;;;;5066454;28;19913;-84
2022/10/06 02:53:27;;;;;;;;;;;20.20;99.90;;;;;;5058622;28;20010;-79
2022/10/06 02:55:58;;;;;;;;;;;20.10;99.90;;;;;;5057507;28;19916;-79
2022/10/06 02:58:24;;;;;;;;;;;20.10;99.90;;;;;;5057410;28;19914;-76
2022/10/06 03:00:51;;;;;;;;;;;20.10;99.90;;;;;;5054127;28;19913;-80
2022/10/06 03:03:18;;;;;;;;;;;20.10;99.90;;;;;;5056865;28;19908;-86
2022/10/06 03:05:44;;;;;;;;;;;20.10;99.90;;;;;;5070472;28;19926;-86
2022/10/06 03:08:11;;;;;;;;;;;20.10;99.90;;;;;;5071080;28;19916;-86
2022/10/06 03:10:38;;;;;;;;;;;20.00;99.90;;;;;;5062510;28;19939;-78
2022/10/06 03:13:05;;;;;;;;;;;20.10;99.90;;;;;;5062497;28;19908;-83
2022/10/06 03:15:32;;;;;;;;;;;20.30;99.90;;;;;;5071082;28;19999;-85
2022/10/06 03:17:59;;;;;;;;;;;20.40;99.90;;;;;;5080772;28;19912;-87
2022/10/06 03:20:26;;;;;;;;;;;20.60;99.90;;;;;;5065022;28;20004;-85
2022/10/06 03:22:53;;;;;;;;;;;20.80;99.90;;;;;;5066394;28;19912;-84
2022/10/06 03:25:19;;;;;;;;;;;21.00;99.90;;;;;;5071993;28;19927;-84
2022/10/06 03:27:46;;;;;;;;;;;21.30;99.90;;;;;;5085246;28;19908;-88
2022/10/06 03:30:13;;;;;;;;;;;21.40;99.90;;;;;;5081786;28;19916;-86
2022/10/06 03:32:40;;;;;;;;;;;21.40;99.90;;;;;;5077249;28;20022;-82
2022/10/06 03:35:07;;;;;;;;;;;21.10;99.90;;;;;;5059137;28;19912;-86
2022/10/06 03:37:34;;;;;;;;;;;20.90;99.90;;;;;;5092570;28;20290;-90
2022/10/06 03:40:01;;;;;;;;;;;20.80;99.90;;;;;;5069518;28;20390;-85
2022/10/06 03:42:27;;;;;;;;;;;20.50;99.90;;;;;;5070279;28;19904;-82
2022/10/06 03:44:54;;;;;;;;;;;20.40;99.90;;;;;;5075595;28;19920;-80
2022/10/06 03:47:21;;;;;;;;;;;20.40;99.90;;;;;;5077583;28;19931;-81
2022/10/06 03:49:48;;;;;;;;;;;20.30;99.90;;;;;;5073364;28;20292;-83
2022/10/06 03:52:14;;;;;;;;;;;20.20;99.90;;;;;;5077781;28;19908;-83
2022/10/06 03:54:41;;;;;;;;;;;20.30;99.90;;;;;;5067475;28;19908;-85
2022/10/06 03:57:08;;;;;;;;;;;20.30;99.90;;;;;;5085920;28;19915;-83
2022/10/06 03:59:34;;;;;;;;;;;20.30;99.90;;;;;;5071213;28;20007;-81
2022/10/06 04:02:02;;;;;;;;;;;20.20;99.90;;;;;;5082671;28;19915;-81
2022/10/06 04:04:28;;;;;;;;;;;20.20;99.90;;;;;;5069066;28;19916;-85
2022/10/06 04:06:55;;;;;;;;;;;20.10;99.90;;;;;;5072532;28;19912;-85
2022/10/06 04:09:22;;;;;;;;;;;20.00;99.90;;;;;;5066649;28;19912;-82
2022/10/06 04:11:50;;;;;;;;;;;20.00;99.90;;;;;;5058498;28;19912;-85
2022/10/06 04:14:17;;;;;;;;;;;19.90;99.90;;;;;;5059701;28;19904;-85
2022/10/06 04:16:45;;;;;;;;;;;20.00;99.90;;;;;;5060134;28;19908;-84
2022/10/06 04:19:12;;;;;;;;;;;19.90;99.90;;;;;;5066502;28;19908;-89
2022/10/06 04:21:40;;;;;;;;;;;20.00;99.90;;;;;;5059253;28;19916;-90
2022/10/06 04:24:07;;;;;;;;;;;19.90;99.90;;;;;;5059526;28;19912;-89
2022/10/06 04:26:36;;;;;;;;;;;19.80;99.90;;;;;;5067230;28;19913;-86
2022/10/06 04:29:03;;;;;;;;;;;19.80;99.90;;;;;;5056385;28;20382;-84
2022/10/06 04:31:31;;;;;;;;;;;19.90;99.90;;;;;;5054975;28;19954;-84
2022/10/06 04:33:59;;;;;;;;;;;19.90;99.90;;;;;;5068553;28;20042;-85
2022/10/06 04:36:28;;;;;;;;;;;19.90;99.90;;;;;;5078122;28;19908;-88
2022/10/06 04:38:57;;;;;;;;;;;19.80;99.90;;;;;;5074321;28;19934;-83
2022/10/06 04:41:25;;;;;;;;;;;19.80;99.90;;;;;;5086509;28;19909;-81
2022/10/06 04:43:52;;;;;;;;;;;19.80;99.90;;;;;;5059473;28;19913;-82
2022/10/06 04:46:20;;;;;;;;;;;19.90;99.90;;;;;;5073909;28;20324;-78
2022/10/06 04:48:46;;;;;;;;;;;19.80;99.90;;;;;;5068731;28;20452;-80
2022/10/06 04:51:14;;;;;;;;;;;19.80;99.90;;;;;;5060940;28;19927;-81
2022/10/06 04:53:45;;;;;;;;;;;19.70;99.90;;;;;;5066351;28;19913;-76
2022/10/06 04:56:23;;;;;;;;;;;19.80;99.90;;;;;;5064584;28;20244;-76
2022/10/06 04:58:50;;;;;;;;;;;19.90;99.90;;;;;;5067743;28;19912;-81
2022/10/06 05:01:18;;;;;;;;;;;20.20;99.90;;;;;;5073261;28;19908;-76
2022/10/06 05:03:49;;;;;;;;;;;20.40;99.90;;;;;;5067032;28;19916;-85
2022/10/06 05:06:23;;;;;;;;;;;20.60;99.90;;;;;;5075165;28;19916;-77
2022/10/06 05:08:57;;;;;;;;;;;20.80;99.90;;;;;;5066285;28;19908;-77
2022/10/06 05:11:24;;;;;;;;;;;20.90;99.90;;;;;;5073721;28;19934;-75
2022/10/06 05:13:52;;;;;;;;;;;21.10;99.90;;;;;;5073944;28;19920;-77
2022/10/06 05:16:20;;;;;;;;;;;21.30;99.90;;;;;;5064855;28;19917;-76
2022/10/06 05:18:46;;;;;;;;;;;21.20;99.90;;;;;;5064100;28;19920;-78
2022/10/06 05:21:17;;;;;;;;;;;21.30;99.90;;;;;;5073475;28;20377;-75
2022/10/06 05:23:45;;;;;;;;;;;21.50;99.90;;;;;;5069089;28;19934;-76
2022/10/06 05:26:13;;;;;;;;;;;21.60;99.90;;;;;;5064468;28;19927;-76
2022/10/06 05:28:39;;;;;;;;;;;21.90;99.90;;;;;;5070190;28;19912;-76
2022/10/06 05:31:09;;;;;;;;;;;22.10;99.90;;;;;;5073765;28;20325;-78
2022/10/06 05:33:36;;;;;;;;;;;22.00;99.90;;;;;;5078210;28;19924;-77
2022/10/06 05:36:04;;;;;;;;;;;22.10;99.90;;;;;;5072215;28;20002;-75
2022/10/06 05:38:31;;;;;;;;;;;22.30;99.90;;;;;;5063402;28;19912;-77
2022/10/06 05:41:17;;;;;;;;;;;22.10;99.90;;;;;;5073457;28;19974;-75
2022/10/06 05:43:44;;;;;;;;;;;21.80;99.90;;;;;;5070224;28;20328;-78
2022/10/06 05:46:19;;;;;;;;;;;21.50;99.90;;;;;;5065012;28;20459;-78
2022/10/06 05:48:46;;;;;;;;;;;21.40;99.90;;;;;;5068603;28;19917;-78
2022/10/06 05:51:13;;;;;;;;;;;21.20;99.90;;;;;;5069838;28;19915;-80
2022/10/06 05:53:40;;;;;;;;;;;21.00;99.90;;;;;;5067786;28;19962;-76
2022/10/06 05:56:14;;;;;;;;;;;21.00;99.90;;;;;;5072983;28;20359;-80
2022/10/06 05:58:42;;;;;;;;;;;21.00;99.90;;;;;;5066749;28;19922;-78
2022/10/06 06:01:11;;;;;;;;;;;20.90;99.90;;;;;;5065866;28;20560;-80
2022/10/06 06:03:37;;;;;;;;;;;20.70;99.90;;;;;;5053289;28;19912;-78
2022/10/06 06:06:13;;;;;;;;;;;20.60;99.90;;;;;;5058433;28;19932;-81
2022/10/06 06:08:40;;;;;;;;;;;20.20;99.90;;;;;;5070690;28;19954;-82
2022/10/06 06:11:07;;;;;;;;;;;20.00;99.90;;;;;;5068758;28;19948;-81
2022/10/06 06:13:35;;;;;;;;;;;19.70;99.90;;;;;;5075549;28;19915;-84
2022/10/06 06:16:05;;;;;;;;;;;19.60;99.90;;;;;;5071455;28;19908;-79
2022/10/06 06:18:36;;;;;;;;;;;19.50;99.90;;;;;;5053207;28;19915;-81
2022/10/06 06:21:07;;;;;;;;;;;19.40;99.90;;;;;;5072595;28;19912;-78
2022/10/06 06:23:35;;;;;;;;;;;19.30;99.90;;;;;;5050676;28;20498;-78
2022/10/06 06:26:03;;;;;;;;;;;19.30;99.90;;;;;;5059703;28;19917;-80
2022/10/06 06:28:30;;;;;;;;;;;19.20;99.90;;;;;;5070442;28;19934;-80
2022/10/06 06:31:06;;;;;;;;;;;19.10;99.90;;;;;;5074267;28;19912;-80
2022/10/06 06:33:36;;;;;;;;;;;19.10;99.90;;;;;;5070861;28;19923;-82
2022/10/06 06:36:16;;;;;;;;;;;19.10;99.90;;;;;;5065048;28;20004;-80
2022/10/06 06:38:45;;;;;;;;;;;19.10;99.90;;;;;;5065308;28;20000;-78
2022/10/06 06:41:16;;;;;;;;;;;19.00;99.90;;;;;;5061519;28;19931;-79
2022/10/06 06:43:44;;;;;;;;;;;19.00;99.90;;;;;;5061732;28;19924;-79
2022/10/06 06:46:13;;;;;;;;;;;19.00;99.90;;;;;;5058715;28;19948;-80
2022/10/06 06:48:41;;;;;;;;;;;19.00;99.90;;;;;;5052677;28;19922;-80
2022/10/06 06:51:09;;;;;;;;;;;19.00;99.90;;;;;;5037943;28;19916;-78
2022/10/06 06:53:36;;;;;;;;;;;19.00;99.90;;;;;;5063624;28;19927;-79
2022/10/06 06:56:03;;;;;;;;;;;18.90;99.90;;;;;;5066676;28;19909;-78
2022/10/06 06:58:30;;;;;;;;;;;18.90;99.90;;;;;;5064512;28;20419;-84
2022/10/06 07:01:05;;;;;;;;;;;18.90;99.90;;;;;;5071976;28;19908;-86
2022/10/06 07:03:32;;;;;;;;;;;18.90;99.90;;;;;;5057135;28;19958;-87
2022/10/06 07:06:08;;;;;;;;;;;18.90;99.90;;;;;;5067792;28;19924;-81
2022/10/06 07:08:41;;;;;;;;;;;18.90;99.90;;;;;;5073313;28;19959;-85
2022/10/06 07:11:18;;;;;;;;;;;18.90;99.90;;;;;;5069261;28;19947;-83
2022/10/06 07:13:45;;;;;;;;;;;18.90;99.90;;;;;;5078450;28;19914;-82
2022/10/06 07:27:17;;;;;;;;;;;18.70;99.90;;;;;;5057620;28;20007;-79
2022/10/06 07:29:45;;;;;;;;;;;18.70;99.90;;;;;;5056106;28;19913;-87
2022/10/06 07:32:13;;;;;;;;;;;18.70;99.90;;;;;;5056534;28;20004;-81
2022/10/06 07:34:40;;;;;;;;;;;18.70;99.90;;;;;;5056581;28;19924;-85
2022/10/06 07:37:07;;;;;;;;;;;18.70;99.90;;;;;;5061565;28;19908;-81
2022/10/06 07:39:34;;;;;;;;;;;18.60;99.90;;;;;;5065943;28;19908;-85
2022/10/06 07:42:01;;;;;;;;;;;18.60;99.90;;;;;;5072876;28;19916;-78
2022/10/06 07:44:27;;;;;;;;;;;18.60;99.90;;;;;;5047636;28;19920;-83
2022/10/06 07:46:54;;;;;;;;;;;18.50;99.90;;;;;;5060611;28;19952;-77
2022/10/06 07:49:21;;;;;;;;;;;18.50;99.90;;;;;;5064938;28;19908;-82
2022/10/06 07:51:47;;;;;;;;;;;18.40;99.90;;;;;;5062187;28;19915;-87
2022/10/06 07:54:14;;;;;;;;;;;18.40;99.90;;;;;;5051250;28;19916;-83
2022/10/06 07:56:41;;;;;;;;;;;18.30;99.90;;;;;;5053433;28;19999;-82
2022/10/06 07:59:07;;;;;;;;;;;18.30;99.90;;;;;;5056733;28;19924;-89
2022/10/06 08:01:34;;;;;;;;;;;18.20;99.90;;;;;;5037398;28;19916;-88
2022/10/06 08:04:05;;;;;;;;;;;18.20;99.90;;;;;;5057092;28;19915;-82
2022/10/06 08:06:32;;;;;;;;;;;18.10;99.90;;;;;;5063399;28;19912;-82
2022/10/06 08:08:59;;;;;;;;;;;18.00;99.90;;;;;;5061178;28;19916;-87
2022/10/06 08:11:26;;;;;;;;;;;17.90;99.90;;;;;;5060474;28;19916;-84
2022/10/06 08:13:53;;;;;;;;;;;17.90;99.90;;;;;;5040840;28;19908;-87
2022/10/06 08:16:20;;;;;;;;;;;17.90;99.90;;;;;;5055123;28;19920;-80
2022/10/06 08:18:53;;;;;;;;;;;17.80;99.90;;;;;;5059434;28;20007;-85
2022/10/06 08:21:22;;;;;;;;;;;17.80;99.90;;;;;;5053576;28;19963;-79
2022/10/06 08:23:50;;;;;;;;;;;17.70;99.90;;;;;;5055134;28;21679;-84
2022/10/06 08:26:18;;;;;;;;;;;17.70;99.90;;;;;;5056496;28;19924;-84
2022/10/06 08:28:46;;;;;;;;;;;17.70;99.90;;;;;;5069685;28;19986;-81
2022/10/06 08:31:14;;;;;;;;;;;17.70;99.90;;;;;;5071564;28;20402;-81
2022/10/06 08:33:42;;;;;;;;;;;17.60;99.90;;;;;;5070301;28;19921;-80
2022/10/06 08:36:13;;;;;;;;;;;17.60;99.90;;;;;;5071389;28;19953;-78
2022/10/06 08:38:40;;;;;;;;;;;17.60;99.90;;;;;;5083389;28;19920;-77
2022/10/06 08:41:24;;;;;;;;;;;17.60;99.90;;;;;;5071420;28;19944;-84
2022/10/06 08:44:22;;;;;;;;;;;17.60;99.90;;;;;;5060661;28;19951;-81
2022/10/06 08:46:59;;;;;;;;;;;17.60;99.90;;;;;;5041257;28;19939;-78
2022/10/06 08:49:29;;;;;;;;;;;17.60;99.90;;;;;;5066359;28;20063;-83
2022/10/06 08:52:07;;;;;;;;;;;17.60;99.90;;;;;;5066861;28;19912;-81
2022/10/06 08:54:52;;;;;;;;;;;17.60;99.90;;;;;;5064689;28;19909;-84
2022/10/06 08:57:53;;;;;;;;;;;17.60;99.90;;;;;;5062803;28;19987;-83
2022/10/06 09:00:20;;;;;;;;;;;17.60;99.90;;;;;;4994620;28;20032;-82
2022/10/06 09:02:47;;;;;;;;;;;17.60;99.90;;;;;;5053200;28;20298;-82
2022/10/06 09:05:18;;;;;;;;;;;17.60;99.90;;;;;;5064449;28;19923;-83
2022/10/06 09:08:09;;;;;;;;;;;17.60;99.90;;;;;;5072640;28;19908;-82
2022/10/06 09:10:42;;;;;;;;;;;17.60;99.90;;;;;;5029717;28;20378;-89
2022/10/06 09:13:12;;;;;;;;;;;17.50;99.90;;;;;;5071616;28;19908;-87
2022/10/06 09:15:48;;;;;;;;;;;17.50;99.90;;;;;;5063424;28;19962;-83
2022/10/06 09:18:18;;;;;;;;;;;17.50;99.90;;;;;;5068590;28;19908;-83
2022/10/06 09:20:56;;;;;;;;;;;17.50;99.90;;;;;;5065359;28;19915;-85
2022/10/06 09:26:11;;;;;;;;;;;17.40;99.90;;;;;;5076257;28;19962;-83
2022/10/06 09:28:38;;;;;;;;;;;17.40;99.90;;;;;;5077616;28;19913;-86
2022/10/06 09:31:23;;;;;;;;;;;17.30;99.90;;;;;;5080490;28;19971;-80
2022/10/06 09:33:52;;;;;;;;;;;17.30;99.90;;;;;;5064165;28;19924;-86
2022/10/06 09:36:19;;;;;;;;;;;17.30;99.90;;;;;;5049562;28;20736;-77
2022/10/06 09:38:55;;;;;;;;;;;17.20;99.90;;;;;;5072722;28;19919;-79
2022/10/06 09:41:24;;;;;;;;;;;17.20;99.90;;;;;;5055863;28;20283;-87
2022/10/06 09:43:53;;;;;;;;;;;17.20;99.90;;;;;;5057336;28;19913;-81
2022/10/06 09:46:20;;;;;;;;;;;17.10;99.90;;;;;;5075192;28;19924;-83
2022/10/06 09:48:46;;;;;;;;;;;17.00;99.90;;;;;;5069569;28;19915;-84
2022/10/06 09:51:17;;;;;;;;;;;17.00;99.90;;;;;;5062375;28;19973;-84
2022/10/06 09:54:02;;;;;;;;;;;16.90;99.90;;;;;;5060068;28;19958;-88
2022/10/06 09:56:29;;;;;;;;;;;16.90;99.90;;;;;;5065141;28;19916;-82
2022/10/06 09:58:56;;;;;;;;;;;16.90;99.90;;;;;;5068848;28;19916;-86
2022/10/06 10:01:25;;;;;;;;;;;16.80;99.90;;;;;;5069670;28;21353;-80
2022/10/06 10:03:59;;;;;;;;;;;16.80;99.90;;;;;;5070126;28;19920;-83
2022/10/06 10:06:26;;;;;;;;;;;16.80;99.90;;;;;;5071131;28;20375;-83
2022/10/06 10:09:11;;;;;;;;;;;16.70;99.90;;;;;;5072323;28;20278;-83
2022/10/06 10:14:22;;;;;;;;;;;16.70;99.90;;;;;;5064387;28;19915;-84
2022/10/06 10:16:49;;;;;;;;;;;16.60;99.90;;;;;;5071519;28;19908;-78
2022/10/06 10:19:22;;;;;;;;;;;16.60;99.90;;;;;;5056905;28;19936;-85
2022/10/06 10:21:49;;;;;;;;;;;16.60;99.90;;;;;;5058568;28;19919;-86
2022/10/06 10:24:19;;;;;;;;;;;16.50;99.90;;;;;;5060878;28;20436;-84
2022/10/06 10:26:52;;;;;;;;;;;16.50;99.90;;;;;;5082101;28;19908;-84
2022/10/06 10:29:29;;;;;;;;;;;16.50;99.90;;;;;;5051907;28;19915;-84
2022/10/06 10:32:11;;;;;;;;;;;16.50;99.90;;;;;;5065099;28;20489;-81
2022/10/06 10:34:50;;;;;;;;;;;16.40;99.90;;;;;;5061723;28;20003;-86
2022/10/06 10:37:23;;;;;;;;;;;16.40;99.90;;;;;;5071774;28;19915;-86
2022/10/06 10:39:52;;;;;;;;;;;16.40;99.90;;;;;;5064927;28;20654;-84
2022/10/06 10:42:27;;;;;;;;;;;16.40;99.90;;;;;;5062594;28;19947;-84
2022/10/06 10:44:56;;;;;;;;;;;16.30;99.90;;;;;;5059450;28;20026;-87
2022/10/06 10:47:33;;;;;;;;;;;16.20;99.90;;;;;;5057701;28;19917;-87
2022/10/06 10:50:20;;;;;;;;;;;16.20;99.90;;;;;;5065480;28;19912;-88
2022/10/06 10:52:49;;;;;;;;;;;16.20;99.90;;;;;;5061104;28;19914;-87
2022/10/06 10:55:19;;;;;;;;;;;16.20;99.90;;;;;;5060895;28;19919;-87
2022/10/06 10:57:47;;;;;;;;;;;16.20;99.90;;;;;;5064769;28;19912;-86
2022/10/06 11:00:18;;;;;;;;;;;16.20;99.90;;;;;;5069015;28;19975;-85
2022/10/06 11:02:44;;;;;;;;;;;16.10;99.90;;;;;;5071889;28;19953;-87
2022/10/06 11:05:17;;;;;;;;;;;16.10;99.90;;;;;;5059756;28;19919;-88
2022/10/06 11:07:47;;;;;;;;;;;16.00;99.90;;;;;;5074405;28;19916;-85
2022/10/06 11:10:22;;;;;;;;;;;15.90;99.90;;;;;;5059611;28;19921;-81
2022/10/06 11:12:49;;;;;;;;;;;15.90;99.90;;;;;;5079602;28;20436;-80
2022/10/06 11:15:16;;;;;;;;;;;15.90;99.90;;;;;;5071123;28;19913;-82
2022/10/06 11:17:49;;;;;;;;;;;15.90;99.90;;;;;;5061684;28;19909;-86
2022/10/06 11:20:24;;;;;;;;;;;15.80;99.90;;;;;;5060838;28;20025;-83
2022/10/06 11:22:51;;;;;;;;;;;15.80;99.90;;;;;;5057530;28;19912;-81
2022/10/06 11:25:22;;;;;;;;;;;15.80;99.90;;;;;;5071097;28;19942;-82
2022/10/06 11:28:01;;;;;;;;;;;15.70;99.90;;;;;;5065931;28;19966;-85
2022/10/06 11:30:29;;;;;;;;;;;15.70;99.90;;;;;;5051824;28;19908;-84
2022/10/06 11:33:01;;;;;;;;;;;15.60;99.90;;;;;;5058985;28;20097;-82
2022/10/06 11:35:38;;;;;;;;;;;15.60;99.90;;;;;;5072478;28;19908;-81
2022/10/06 11:38:15;;;;;;;;;;;15.60;99.90;;;;;;5069283;28;19914;-83
2022/10/06 11:40:48;;;;;;;;;;;15.70;99.90;;;;;;5071643;28;19965;-84
2022/10/06 11:43:35;;;;;;;;;;;15.60;99.90;;;;;;5050832;28;19912;-79
2022/10/06 11:46:04;;;;;;;;;;;15.60;99.90;;;;;;5072265;28;20119;-85
2022/10/06 11:48:32;;;;;;;;;;;15.60;99.90;;;;;;5073420;28;19912;-83
2022/10/06 11:51:17;;;;;;;;;;;15.60;99.90;;;;;;5042837;28;19915;-83
2022/10/06 11:53:44;;;;;;;;;;;15.60;99.90;;;;;;5061895;28;19916;-81
2022/10/06 11:56:17;;;;;;;;;;;15.60;99.90;;;;;;5073000;28;20366;-81
2022/10/06 11:58:56;;;;;;;;;;;15.60;99.90;;;;;;5066443;28;19909;-77
2022/10/06 12:01:48;;;;;;;;;;;15.60;99.90;;;;;;5055854;28;19909;-79
2022/10/06 12:04:16;;;;;;;;;;;15.60;99.90;;;;;;5065051;28;19915;-81
2022/10/06 12:06:43;;;;;;;;;;;15.50;99.90;;;;;;5064181;28;19944;-84
2022/10/06 12:09:19;;;;;;;;;;;15.60;99.90;;;;;;5060335;28;19914;-86
2022/10/06 12:11:46;;;;;;;;;;;15.50;99.90;;;;;;5057896;28;19908;-83
2022/10/06 12:14:30;;;;;;;;;;;15.50;99.90;;;;;;5069642;28;19959;-83
2022/10/06 12:17:05;;;;;;;;;;;15.50;99.90;;;;;;5054301;28;20006;-80
2022/10/06 12:19:42;;;;;;;;;;;15.40;99.90;;;;;;5064703;28;20027;-81
2022/10/06 12:22:15;;;;;;;;;;;15.30;99.90;;;;;;5060479;28;19932;-88
2022/10/06 12:24:44;;;;;;;;;;;15.20;99.90;;;;;;5069713;28;19985;-88
2022/10/06 12:27:24;;;;;;;;;;;15.10;99.90;;;;;;5077436;28;19915;-80
2022/10/06 12:29:53;;;;;;;;;;;15.10;99.90;;;;;;5068015;28;20003;-87
2022/10/06 12:32:52;;;;;;;;;;;14.90;99.90;;;;;;5067930;28;19912;-82
2022/10/06 12:35:19;;;;;;;;;;;14.90;99.90;;;;;;5008643;28;19924;-86
2022/10/06 12:37:47;;;;;;;;;;;15.00;99.90;;;;;;5066481;28;20284;-85
2022/10/06 12:40:31;;;;;;;;;;;15.00;99.90;;;;;;5073731;28;19912;-85
2022/10/06 12:43:10;;;;;;;;;;;15.00;99.90;;;;;;5063357;28;19912;-83
2022/10/06 12:45:39;;;;;;;;;;;15.00;99.90;;;;;;5065170;28;19920;-84
2022/10/06 12:48:12;;;;;;;;;;;15.00;99.90;;;;;;5057190;28;20009;-82
2022/10/06 12:50:41;;;;;;;;;;;15.10;99.90;;;;;;5069008;28;19919;-85
2022/10/06 12:53:13;;;;;;;;;;;15.20;99.90;;;;;;5073479;28;20256;-85
2022/10/06 12:55:42;;;;;;;;;;;15.20;99.90;;;;;;5069397;28;19948;-85
2022/10/06 12:58:38;;;;;;;;;;;15.20;99.90;;;;;;5064684;28;20368;-86
2022/10/06 13:01:08;;;;;;;;;;;15.20;99.90;;;;;;5060675;28;20438;-83
2022/10/06 13:03:36;;;;;;;;;;;15.20;99.90;;;;;;5059079;28;20483;-83
2022/10/06 13:06:04;;;;;;;;;;;15.20;99.90;;;;;;5068524;28;20051;-82
2022/10/06 13:08:32;;;;;;;;;;;15.20;99.90;;;;;;5051266;28;19920;-79
2022/10/06 13:11:16;;;;;;;;;;;15.20;99.90;;;;;;5047049;28;19991;-81
2022/10/06 13:13:47;;;;;;;;;;;15.10;99.90;;;;;;5049617;28;19954;-80
2022/10/06 13:16:15;;;;;;;;;;;15.10;99.90;;;;;;5048443;28;19911;-85
2022/10/06 13:18:41;;;;;;;;;;;15.10;99.90;;;;;;5050760;28;19912;-79
2022/10/06 13:21:13;;;;;;;;;;;15.00;99.90;;;;;;5050718;28;19911;-81
2022/10/06 13:23:39;;;;;;;;;;;15.00;99.90;;;;;;5049264;28;19916;-81
2022/10/06 13:26:23;;;;;;;;;;;14.90;99.90;;;;;;5047646;28;19925;-83
2022/10/06 13:28:59;;;;;;;;;;;14.90;99.90;;;;;;5048045;28;19922;-80
2022/10/06 13:31:30;;;;;;;;;;;14.90;99.90;;;;;;5051314;28;20066;-84
2022/10/06 13:33:58;;;;;;;;;;;15.00;99.90;;;;;;5052224;28;20935;-85
2022/10/06 13:36:26;;;;;;;;;;;15.00;99.90;;;;;;5058639;28;19909;-83
2022/10/06 13:38:53;;;;;;;;;;;15.10;99.90;;;;;;5055703;28;19917;-86
2022/10/06 13:41:23;;;;;;;;;;;15.10;99.90;;;;;;5051928;28;19923;-83
2022/10/06 13:44:09;;;;;;;;;;;15.10;99.90;;;;;;5053090;28;19934;-82
2022/10/06 13:46:41;;;;;;;;;;;15.10;99.90;;;;;;5042361;28;19927;-81
2022/10/06 13:49:11;;;;;;;;;;;15.00;99.90;;;;;;5052086;28;19913;-81
2022/10/06 13:51:37;;;;;;;;;;;15.00;99.90;;;;;;5048689;28;20027;-81
2022/10/06 13:54:18;;;;;;;;;;;14.90;99.90;;;;;;5049775;28;19916;-81
2022/10/06 13:56:45;;;;;;;;;;;14.90;99.90;;;;;;5059143;28;19917;-84
2022/10/06 13:59:32;;;;;;;;;;;14.80;99.90;;;;;;5055089;28;19913;-81
2022/10/06 14:02:01;;;;;;;;;;;14.70;99.90;;;;;;5053654;28;19920;-85
2022/10/06 14:04:28;;;;;;;;;;;14.60;99.90;;;;;;5053218;28;19917;-81
2022/10/06 14:06:58;;;;;;;;;;;14.50;99.90;;;;;;5048920;28;19922;-81
2022/10/06 14:09:32;;;;;;;;;;;14.50;99.90;;;;;;5045916;28;19916;-80
2022/10/06 14:12:05;;;;;;;;;;;14.50;99.90;;;;;;5048587;28;20204;-80
2022/10/06 14:14:32;;;;;;;;;;;14.50;99.90;;;;;;5049120;28;20031;-79
2022/10/06 14:16:59;;;;;;;;;;;14.60;99.90;;;;;;5045856;28;19912;-82
2022/10/06 14:19:29;;;;;;;;;;;14.70;99.90;;;;;;5047043;28;19916;-80
2022/10/06 14:21:56;;;;;;;;;;;14.70;99.90;;;;;;5045654;28;19923;-81
2022/10/06 14:24:26;;;;;;;;;;;14.80;99.90;;;;;;5049583;28;19924;-80
2022/10/06 14:26:56;;;;;;;;;;;14.80;99.90;;;;;;5044539;28;19931;-81
2022/10/06 14:29:24;;;;;;;;;;;14.80;99.90;;;;;;5048290;28;19916;-82
2022/10/06 14:31:50;;;;;;;;;;;14.90;99.90;;;;;;5045315;28;20007;-80
2022/10/06 14:34:18;;;;;;;;;;;14.90;99.90;;;;;;5069866;28;19915;-80
2022/10/06 14:36:46;;;;;;;;;;;14.90;99.90;;;;;;5043689;28;20389;-83
2022/10/06 14:39:13;;;;;;;;;;;14.90;99.90;;;;;;5030738;28;20011;-76
2022/10/06 14:41:40;;;;;;;;;;;14.90;99.90;;;;;;5046275;28;19912;-80
2022/10/06 14:44:10;;;;;;;;;;;14.90;99.90;;;;;;5050417;28;20320;-77
2022/10/06 14:46:37;;;;;;;;;;;14.90;99.90;;;;;;5048319;28;19932;-79
2022/10/06 14:49:04;;;;;;;;;;;14.90;99.90;;;;;;5047595;28;20027;-78